EWG1B EDDM-EDJA
Flight info
| Callsign | EWG1B |
|---|---|
| Flight time | N/A |
| Altitude | 8000 |
| Route | ALG2E/08R ALG DCT NORGU |
| Aircraft | A320/M-SDE3FGHIRWY/LB1 |
Departure
| Time | 2026-05-01 11:27 |
|---|---|
| Airport | Munich Airport (EDDM) |
Arrival
| Time | N/A |
|---|---|
| Airport | Memmingen Allgau Airport (EDJA) |
| Time | Latitude | Longitude | Altitude | Speed | Heading |
|---|---|---|---|---|---|
| 2026-05-01 11:02 | 48.35470 | 11.79746 | 1483 ft | 0 kts | 83° |
| 2026-05-01 11:16 | 48.35468 | 11.79718 | 1485 ft | 4 kts | 82° |
| 2026-05-01 11:16 | 48.35464 | 11.79678 | 1484 ft | 4 kts | 83° |
| 2026-05-01 11:17 | 48.35461 | 11.79638 | 1479 ft | 4 kts | 84° |
| 2026-05-01 11:17 | 48.35459 | 11.79608 | 1478 ft | 2 kts | 97° |
| 2026-05-01 11:17 | 48.35462 | 11.79592 | 1479 ft | 2 kts | 146° |
| 2026-05-01 11:17 | 48.35472 | 11.79586 | 1485 ft | 2 kts | 169° |
| 2026-05-01 11:18 | 48.35473 | 11.79586 | 1485 ft | 0 kts | 167° |
| 2026-05-01 11:19 | 48.35472 | 11.79586 | 1484 ft | 0 kts | 167° |
| 2026-05-01 11:19 | 48.35401 | 11.79604 | 1484 ft | 13 kts | 174° |
| 2026-05-01 11:20 | 48.35344 | 11.79613 | 1486 ft | 0 kts | 174° |
| 2026-05-01 11:20 | 48.35336 | 11.79614 | 1488 ft | 7 kts | 174° |
| 2026-05-01 11:20 | 48.35260 | 11.79627 | 1477 ft | 11 kts | 173° |
| 2026-05-01 11:21 | 48.35189 | 11.79640 | 1477 ft | 10 kts | 174° |
| 2026-05-01 11:21 | 48.35105 | 11.79652 | 1487 ft | 18 kts | 174° |
| 2026-05-01 11:21 | 48.34995 | 11.79619 | 1472 ft | 15 kts | 230° |
| 2026-05-01 11:21 | 48.34986 | 11.79602 | 1475 ft | 4 kts | 231° |
| 2026-05-01 11:22 | 48.34901 | 11.79551 | 1481 ft | 16 kts | 172° |
| 2026-05-01 11:22 | 48.34834 | 11.79556 | 1486 ft | 12 kts | 191° |
| 2026-05-01 11:22 | 48.34774 | 11.79370 | 1482 ft | 23 kts | 263° |
| 2026-05-01 11:22 | 48.34754 | 11.79146 | 1487 ft | 21 kts | 265° |
| 2026-05-01 11:23 | 48.34740 | 11.78910 | 1488 ft | 30 kts | 264° |
| 2026-05-01 11:23 | 48.34715 | 11.78510 | 1487 ft | 44 kts | 261° |
| 2026-05-01 11:23 | 48.34678 | 11.78083 | 1483 ft | 41 kts | 263° |
| 2026-05-01 11:23 | 48.34644 | 11.77657 | 1492 ft | 41 kts | 264° |
| 2026-05-01 11:24 | 48.34612 | 11.77227 | 1485 ft | 42 kts | 263° |
| 2026-05-01 11:24 | 48.34578 | 11.76793 | 1483 ft | 42 kts | 263° |
| 2026-05-01 11:24 | 48.34512 | 11.75926 | 1496 ft | 42 kts | 263° |
| 2026-05-01 11:25 | 48.34479 | 11.75491 | 1497 ft | 40 kts | 263° |
| 2026-05-01 11:25 | 48.34280 | 11.75244 | 1498 ft | 0 kts | 174° |
| 2026-05-01 11:26 | 48.34279 | 11.75244 | 1498 ft | 1 kts | 174° |
| 2026-05-01 11:26 | 48.34098 | 11.75496 | 1499 ft | 25 kts | 83° |
| 2026-05-01 11:26 | 48.34128 | 11.75876 | 1498 ft | 67 kts | 83° |
| 2026-05-01 11:27 | 48.34212 | 11.76932 | 1494 ft | 133 kts | 83° |
| 2026-05-01 11:27 | 48.34349 | 11.78462 | 1962 ft | 150 kts | 83° |
| 2026-05-01 11:27 | 48.34510 | 11.80029 | 2836 ft | 153 kts | 81° |
| 2026-05-01 11:27 | 48.34665 | 11.81621 | 3656 ft | 156 kts | 83° |
| 2026-05-01 11:28 | 48.34779 | 11.83340 | 4048 ft | 176 kts | 86° |
| 2026-05-01 11:28 | 48.34901 | 11.85287 | 4353 ft | 198 kts | 85° |
| 2026-05-01 11:28 | 48.35045 | 11.87483 | 4706 ft | 223 kts | 86° |